ADDS METAR Data INFO
IDs: Format: Raw Decoded Include TAF

Data at: 0543 UTC 22 Nov 2017

KE11 220535Z AUTO 02008KT 10SM CLR 07/M03 A3038 RMK AO2 T00651035
KE11 220515Z AUTO 02006KT 10SM CLR 07/M03 A3038 RMK AO2 T00681035
KE11 220455Z AUTO 02006KT 10SM CLR 07/M04 A3038 RMK AO2 T00671036 402180067
KE11 220435Z AUTO 02009KT 10SM CLR 08/M03 A3037 RMK AO2 T00761035
KE11 220415Z AUTO 04007KT 10SM CLR 09/M04 A3035 RMK AO2 T00921036
KE11 220355Z AUTO 04009KT 10SM CLR 10/M03 A3035 RMK AO2 T00971034
KE11 220335Z AUTO 04008KT 10SM CLR 10/M03 A3034 RMK AO2 T00981031
KE11 220315Z AUTO 04008KT 10SM CLR 11/M03 A3032 RMK AO2 T01061030
KE11 220255Z AUTO 04008KT 10SM CLR 12/M03 A3031 RMK AO2 T01161027
KE11 220235Z AUTO 03007KT 10SM CLR 12/M02 A3030 RMK AO2 T01211025
KE11 220215Z AUTO 03008KT 10SM CLR 13/M02 A3028 RMK AO2 T01251022
KE11 220155Z AUTO 03008KT 10SM CLR 14/M02 A3027 RMK AO2 T01351022
KE11 220135Z AUTO 03009KT 10SM CLR 14/M02 A3025 RMK AO2 T01361023
KE11 220115Z AUTO 04012G16KT 10SM CLR 15/M02 A3024 RMK AO2 T01491022
KE11 220055Z AUTO 02009KT 10SM CLR 14/M02 A3022 RMK AO2 T01361020
KE11 220035Z AUTO 01006KT 10SM CLR 14/M02 A3021 RMK AO2 T01431023
KE11 220015Z AUTO 04009KT 10SM CLR 16/M03 A3019 RMK AO2 T01611026
KE11 212355Z AUTO 03008KT 10SM CLR 17/M03 A3018 RMK AO2 T01681035 10218 20168
KE11 212335Z AUTO 03010G17KT 10SM CLR 18/M04 A3016 RMK AO2 T01841039
KE11 212315Z AUTO 04012G23KT 10SM CLR 20/M04 A3015 RMK AO2 T01951045
KE11 212255Z AUTO 04014G20KT 10SM CLR 20/M05 A3014 RMK AO2 T02001050
KE11 212235Z AUTO 04018G28KT 10SM CLR 20/M05 A3013 RMK AO2 T02041052
KE11 212215Z AUTO 06018G25KT 10SM CLR 21/M05 A3012 RMK AO2 T02091052
KE11 212155Z AUTO 05017G28KT 10SM CLR 21/M05 A3012 RMK AO2 T02131054
KE11 212135Z AUTO 04018G28KT 10SM CLR 21/M05 A3011 RMK AO2 T02141055
KE11 212115Z AUTO 05025G32KT 10SM SCT041 22/M06 A3009 RMK AO2 T02151058
KE11 212055Z AUTO 04020G30KT 10SM SCT031 SCT041 BKN047 22/M06 A3009 RMK AO2 T02161065
KE11 212035Z AUTO 05021G34KT 7SM SCT033 BKN039 22/M07 A3008 RMK AO2 T02151068
KE11 212015Z AUTO 05025G33KT 7SM SCT040 22/M07 A3007 RMK AO2 T02171072
KE11 211955Z AUTO 04023G31KT 10SM CLR 21/M08 A3006 RMK AO2 T02141080
KE11 211935Z AUTO 03024G34KT 7SM CLR 22/M09 A3005 RMK AO2 T02151093
KE11 211915Z AUTO 03021G29KT 10SM CLR 22/M11 A3004 RMK AO2 T02151114
KE11 211855Z AUTO 03022G29KT 10SM CLR 21/M11 A3005 RMK AO2 T02081110
KE11 211835Z AUTO 02023G31KT 10SM CLR 22/M11 A3003 RMK AO2 T02161108
KE11 211815Z AUTO 02021G28KT 10SM CLR 21/M11 A3003 RMK AO2 T02131115
KE11 211755Z AUTO 01020G27KT 10SM CLR 21/M12 A3001 RMK AO2 T02101117 10211 20101
KE11 211735Z AUTO 36022G27KT 10SM CLR 21/M12 A3001 RMK AO2 T02061117
KE11 211715Z AUTO 35020G26KT 10SM CLR 21/M12 A2999 RMK AO2 T02071117
KE11 211655Z AUTO 36018G23KT 10SM CLR 19/M12 A2999 RMK AO2 T01931119
KE11 211635Z AUTO 35017G21KT 10SM CLR 18/M12 A2998 RMK AO2 T01821121
KE11 211615Z AUTO 34016G20KT 10SM CLR 17/M12 A2998 RMK AO2 T01731124
KE11 211555Z AUTO 33014G20KT 10SM CLR 17/M12 A2997 RMK AO2 T01661125
KE11 211535Z AUTO 31009G14KT 10SM CLR 15/M11 A2997 RMK AO2 T01491113
KE11 211515Z AUTO 31009KT 10SM CLR 13/M11 A2996 RMK AO2 T01331110
KE11 211455Z AUTO 31010KT 10SM CLR 12/M11 A2995 RMK AO2 T01221110
KE11 211435Z AUTO 31011G15KT 10SM CLR 12/M11 A2994 RMK AO2 T01191111
KE11 211415Z AUTO 31009KT 10SM CLR 11/M11 A2992 RMK AO2 T01111106
KE11 211355Z AUTO 30009G17KT 10SM CLR 11/M11 A2992 RMK AO2 T01141107
KE11 211335Z AUTO 30011G16KT 10SM CLR 12/M11 A2991 RMK AO2 T01191107
KE11 211315Z AUTO 30010G17KT 10SM CLR 12/M10 A2991 RMK AO2 T01241105
KE11 211255Z AUTO 30009G15KT 10SM CLR 13/M10 A2988 RMK AO2 T01251098
KE11 211235Z AUTO 30012G16KT 10SM CLR 11/M08 A2987 RMK AO2 T01111076
KE11 211215Z AUTO 29010KT 10SM CLR 11/M07 A2987 RMK AO2 T01091069
KE11 211155Z AUTO 28010KT 10SM CLR 10/M06 A2986 RMK AO2 T01001063 10108 20070
KE11 211135Z AUTO 28009KT 10SM CLR 10/M06 A2986 RMK AO2 T01021062
KE11 211115Z AUTO 27009KT 10SM CLR 09/M06 A2986 RMK AO2 T00931056
KE11 211055Z AUTO 27010KT 10SM CLR 09/M05 A2986 RMK AO2 T00911053
KE11 211035Z AUTO 27010KT 10SM CLR 10/M05 A2985 RMK AO2 T00961055
KE11 211015Z AUTO 26011KT 10SM CLR 09/M05 A2984 RMK AO2 T00861048
KE11 210955Z AUTO 26009KT 10SM CLR 08/M04 A2984 RMK AO2 T00801044
KE11 210935Z AUTO 24009KT 10SM CLR 07/M04 A2985 RMK AO2 T00701039
KE11 210915Z AUTO 23007KT 10SM CLR 07/M04 A2985 RMK AO2 T00721040
KE11 210855Z AUTO 24006KT 10SM CLR 08/M04 A2986 RMK AO2 T00801041
KE11 210835Z AUTO 25007KT 10SM CLR 08/M04 A2986 RMK AO2 T00801040
KE11 210815Z AUTO 25006KT 10SM CLR 08/M04 A2986 RMK AO2 T00821041
KE11 210755Z AUTO 24007KT 10SM CLR 09/M04 A2987 RMK AO2 T00881041
KE11 210735Z AUTO 24008KT 10SM CLR 09/M04 A2988 RMK AO2 T00901040
KE11 210715Z AUTO 24008KT 10SM CLR 10/M04 A2989 RMK AO2 T00961042
KE11 210655Z AUTO 24008KT 10SM CLR 10/M04 A2989 RMK AO2 T00971042
KE11 210635Z AUTO 24010KT 10SM CLR 11/M04 A2989 RMK AO2 T01051043
KE11 210615Z AUTO 24010G14KT 10SM CLR 11/M04 A2989 RMK AO2 T01061043
KE11 210555Z AUTO 25009KT 10SM CLR 11/M04 A2990 RMK AO2 T01091042 10163 20109
KE11 210535Z AUTO 25009KT 10SM CLR 11/M04 A2991 RMK AO2 T01141042
KE11 210515Z AUTO 24010KT 10SM CLR 12/M04 A2989 RMK AO2 T01211045
KE11 210455Z AUTO 23010KT 10SM CLR 13/M04 A2991 RMK AO2 T01251045 402100015
KE11 210435Z AUTO 24009G15KT 10SM CLR 13/M04 A2992 RMK AO2 T01301044
KE11 210415Z AUTO 24008KT 10SM CLR 13/M04 A2993 RMK AO2 T01281037
KE11 210355Z AUTO 24007KT 10SM CLR 13/M03 A2993 RMK AO2 T01261032
KE11 210335Z AUTO 24007KT 10SM CLR 13/M03 A2992 RMK AO2 T01291031
KE11 210315Z AUTO 23009KT 10SM CLR 13/M03 A2991 RMK AO2 T01311032
KE11 210255Z AUTO 23009KT 10SM CLR 14/M03 A2991 RMK AO2 T01371030
KE11 210235Z AUTO 22013KT 10SM CLR 14/M03 A2990 RMK AO2 T01411027
KE11 210215Z AUTO 22012G15KT 10SM CLR 14/M02 A2991 RMK AO2 T01371024
KE11 210155Z AUTO 21010G17KT 10SM CLR 15/M02 A2991 RMK AO2 T01451021
KE11 210135Z AUTO 21009KT 10SM CLR 14/M02 A2992 RMK AO2 T01371017
KE11 210115Z AUTO 21007KT 10SM CLR 14/M02 A2992 RMK AO2 T01391022
KE11 210055Z AUTO 22008KT 10SM CLR 15/M03 A2992 RMK AO2 T01531027
KE11 210035Z AUTO 22010KT 10SM CLR 16/M03 A2991 RMK AO2 T01591033
KE11 210015Z AUTO 22007KT 10SM CLR 16/M04 A2992 RMK AO2 T01571040
KE11 202355Z AUTO 22007KT 10SM CLR 16/M04 A2992 RMK AO2 T01641044 10210 20164
KE11 202335Z AUTO 22007KT 10SM CLR 18/M05 A2992 RMK AO2 T01751050
KE11 202315Z AUTO 22009KT 10SM CLR 19/M05 A2993 RMK AO2 T01861054
KE11 202255Z AUTO 22013G17KT 10SM CLR 20/M05 A2993 RMK AO2 T01981055
KE11 202235Z AUTO 23010G16KT 10SM CLR 20/M06 A2994 RMK AO2 T02031059
KE11 202215Z AUTO 23012G15KT 10SM CLR 20/M06 A2994 RMK AO2 T02021056
KE11 202155Z AUTO 23012KT 10SM CLR 21/M06 A2993 RMK AO2 T02081057
KE11 202135Z AUTO 24013KT 10SM CLR 21/M06 A2994 RMK AO2 T02051059
KE11 202115Z AUTO 23012G17KT 10SM CLR 21/M06 A2994 RMK AO2 T02051064
KE11 202055Z AUTO 25010G15KT 10SM CLR 21/M06 A2995 RMK AO2 T02071062
KE11 202035Z AUTO 24009G17KT 10SM CLR 21/M06 A2996 RMK AO2 T02051063
KE11 202015Z AUTO 25011G14KT 10SM CLR 20/M06 A2996 RMK AO2 T02011063
KE11 201955Z AUTO 22010G14KT 10SM CLR 20/M06 A2997 RMK AO2 T01991061
KE11 201935Z AUTO 26010G15KT 10SM CLR 19/M06 A2998 RMK AO2 T01931057
KE11 201915Z AUTO 23010KT 10SM CLR 19/M05 A2999 RMK AO2 T01891054
KE11 201855Z AUTO 23007KT 10SM CLR 18/M05 A3001 RMK AO2 T01841050
KE11 201835Z AUTO 23010KT 10SM CLR 17/M05 A3002 RMK AO2 T01731047
KE11 201815Z AUTO 22009G14KT 10SM CLR 17/M04 A3003 RMK AO2 T01701043
KE11 201755Z AUTO 22010KT 10SM CLR 17/M03 A3004 RMK AO2 T01701035 10170 20015